Aérodrome :
LOGIN :

S'inscrire | Disclaimer

   EN    FR    IT 

 










Légende :    VFR   VFR Marginal   IFR   IFR Intensif   IFR Très Intensif
Visi : 
Plafond : 
>= 8 km
>= 3000ft
5 à 8 km
1000 à 3000 ft
1500m à 5 km
500 à 1000 ft
800 à 1500m
200 à 500 ft
< 800m
< 200 ft
Symboles :   Orages  Brouillard  Fortes neiges  Fortes précipitations  Vent > 20 kt
SIGMETs :   Divers  Orages  Givrage  Turbulence  Onde Orograph.  Cendres Volcan.







- Altitude de l'aérodrome : 158 ft
- Code IATA : QAR


EHDL - Deelen Airbase

DERNIER METAR :
  • 221425Z AUTO 06013KT 340V140 9999 NCD 04/M04 Q1023 BLU

METARs EXPIRÉS :
  • 221355Z AUTO 05014KT 350V110 9999 NCD 04/M04 Q1024 BLU
  • 221325Z AUTO 05014KT 360V150 9999 SCT043 BKN048 04/M04 Q1024 BLU
  • 221255Z AUTO 06013KT 330V130 9999 NCD 04/M04 Q1024 BLU
  • 221225Z AUTO 06013KT 350V150 9999 SCT051 04/M04 Q1025 BLU
  • 221155Z AUTO 05013KT 340V150 9999 BKN048 OVC054 04/M04 Q1025 BLU

TAF TAF EHDL
Valide du 22 à 14h jusqu'au 23 à 02h UTC


221314Z 2214/2302 06012KT CAVOK
Pas de NOTAMs connus pour ce terrain.



MET'MAP, la Météo Aéronautique d'un coup d'oeil ! - Copyright ORBIFLY Décembre 2007 - Disclaimer

ORBIFLY MET'MAP TEAM :

Programmation & Développement : Alexandra Zaïnal
Conception & Développement : Baudouin d'Aumeries
Co-Programmation & Développement : Marc-Olivier Méhu
Soutien technique & logistique : Manuel Goepfert

Contact : metmap@orbifly.com




SOURCES & CREDITS :

   NOAA